Hyalite Weather Station

This weather station provides temperature, wind speed, gust or max wind speed, and wind direction at 9982ft near the summit of Flanders Mountain. This data can be used with temperature and precipitation data from the Shower Falls SNOTEL site. If the data has not been updated recently you can view it directly on datagarrison.com

Elevation
9982ft
Jump to table bottom
Date Time Temperature
deg F
RH, % Wind Speed Wind Gust Wind Direction
04/27/18 13:00 65.4 54 0 3 SW - 208
04/27/18 12:00 63.0 70 0 2 SW - 240
04/27/18 11:00 57.6 58 2 10 SW - 241
04/27/18 10:00 43.9 27 5 9 SW - 232
04/27/18 09:00 42.5 24 5 8 SW - 219
04/27/18 08:00 41.1 24 6 9 SW - 215
04/27/18 07:00 40.8 23 7 14 SW - 223
04/27/18 06:00 39.5 26 12 16 SW - 219
04/27/18 05:00 39.8 21 3 12 S - 194
04/27/18 04:00 39.4 18 5 10 SW - 225
04/27/18 03:00 39.3 28 7 11 W - 251
04/27/18 02:00 40.3 20 5 7 W - 253
04/27/18 01:00 40.4 22 6 7 W - 251
04/27/18 00:00 41.1 21 5 8 W - 260
04/26/18 23:00 39.8 37 8 10 SW - 247
04/26/18 22:00 39.6 36 7 10 W - 251
04/26/18 21:00 39.7 40 7 11 W - 265
04/26/18 20:00 40.2 43 5 8 W - 248
04/26/18 19:00 41.4 42 4 8 W - 250
04/26/18 18:00 42.9 41 5 10 W - 256
04/26/18 17:00 45.0 40 5 12 W - 261
04/26/18 16:00 45.4 35 4 11 W - 260
04/26/18 15:00 44.2 35 4 11 SW - 241
04/26/18 14:00 45.3 35 2 10 W - 286
04/26/18 13:00 46.1 28 2 7 W - 289
04/26/18 12:00 42.9 27 2 7 SW - 240
04/26/18 11:00 41.4 30 2 6 SW - 241
04/26/18 10:00 35.9 28 2 8 NW - 327
04/26/18 09:00 35.4 34 2 7 N - 13
04/26/18 08:00 31.4 40 4 10 N - 17
04/26/18 07:00 30.2 54 5 12 NE - 32
04/26/18 06:00 27.9 57 9 15 N - 22
04/26/18 05:00 26.4 54 9 17 N - 21
04/26/18 04:00 26.7 50 11 22 N - 20
04/26/18 03:00 26.3 49 11 21 NE - 24
04/26/18 02:00 24.9 52 8 22 NE - 27
04/26/18 01:00 24.6 66 6 20 N - 20
04/26/18 00:00 23.5 90 4 9 NE - 31
04/25/18 23:00 23.8 96 7 12 NW - 306
04/25/18 22:00 25.6 91 7 13 NW - 317
04/25/18 21:00 27.4 83 7 18 NW - 302
04/25/18 20:00 28.4 79 6 15 NW - 310
04/25/18 19:00 28.6 82 7 20 NW - 307
04/25/18 18:00 30.0 70 13 28 W - 286
04/25/18 17:00 34.4 49 13 29 W - 275
04/25/18 16:00 37.2 41 14 28 W - 271
04/25/18 15:00 36.9 42 14 30 W - 272
04/25/18 14:00 36.7 42 10 22 W - 267
04/25/18 13:00 37.8 34 11 22 W - 256
04/25/18 12:00 34.6 33 14 23 SW - 247
https://datagarrison.com/users/300034012539980/300234063416550/temp/300234063416550_live.txt